Time;durP1;ratioP1;P1;durP2;ratioP2;P2;SDS_P1;SDS_P2;PMS_P1;PMS_P2;Temp;Humidity;BMP_temperature;BMP_pressure;BME280_temperature;BME280_humidity;BME280_pressure;Samples;Min_cycle;Max_cycle;Signal;HPM_P1;HPM_P2
2021/08/25 00:02:09;;;;;;;;;;;;;;;25.61;28.06;99109.13;5055004;28;19929;-74
2021/08/25 00:04:36;;;;;;;;;;;;;;;25.58;27.88;99117.81;5071757;28;19925;-74
2021/08/25 00:07:02;;;;;;;;;;;;;;;25.58;27.87;99101.38;5038493;28;19925;-76
2021/08/25 00:09:27;;;;;;;;;;;;;;;25.55;27.88;99107.28;5054846;28;20382;-75
2021/08/25 00:11:53;;;;;;;;;;;;;;;25.52;28.03;99107.75;5054741;28;19936;-75
2021/08/25 00:14:19;;;;;;;;;;;;;;;25.49;27.71;99108.19;5055276;28;19932;-74
2021/08/25 00:16:44;;;;;;;;;;;;;;;25.48;27.92;99106.53;5071058;28;19929;-74
2021/08/25 00:19:10;;;;;;;;;;;;;;;25.47;27.92;99113.91;5071334;28;19948;-74
2021/08/25 00:21:36;;;;;;;;;;;;;;;25.47;27.92;99121.28;5071448;28;19925;-74
2021/08/25 00:24:01;;;;;;;;;;;;;;;25.40;28.06;99121.31;5071640;28;19924;-75
2021/08/25 00:26:27;;;;;;;;;;;;;;;25.38;27.99;99121.53;5071141;28;19973;-75
2021/08/25 00:28:53;;;;;;;;;;;;;;;25.34;27.92;99117.56;5071295;28;19924;-75
2021/08/25 00:31:19;;;;;;;;;;;;;;;25.31;28.16;99118.03;5055025;28;20027;-75
2021/08/25 00:33:47;;;;;;;;;;;;;;;25.31;28.12;99115.31;5055169;28;19936;-74
2021/08/25 00:36:13;;;;;;;;;;;;;;;25.30;28.02;99110.88;5053874;28;19932;-73
2021/08/25 00:38:39;;;;;;;;;;;;;;;25.26;28.22;99115.13;5071351;28;19935;-75
2021/08/25 00:41:05;;;;;;;;;;;;;;;25.20;28.35;99116.03;5042212;28;20406;-75
2021/08/25 00:43:30;;;;;;;;;;;;;;;25.18;28.30;99101.72;5075320;28;20287;-74
2021/08/25 00:45:56;;;;;;;;;;;;;;;25.16;28.39;99109.31;5074977;28;19979;-74
2021/08/25 00:48:22;;;;;;;;;;;;;;;25.14;28.35;99109.53;5074936;28;20002;-75
2021/08/25 00:50:51;;;;;;;;;;;;;;;25.08;28.37;99113.13;5058345;28;19936;-75
2021/08/25 00:53:18;;;;;;;;;;;;;;;25.08;28.38;99112.28;5058008;28;19924;-75
2021/08/25 00:55:58;;;;;;;;;;;;;;;25.07;28.59;99110.63;5045967;28;19935;-75
2021/08/25 00:58:27;;;;;;;;;;;;;;;25.05;28.53;99108.13;5041809;28;20033;-75
2021/08/25 01:01:06;;;;;;;;;;;;;;;25.01;28.41;99115.09;5074623;28;19925;-75
2021/08/25 01:03:41;;;;;;;;;;;;;;;24.99;28.45;99114.47;5041521;28;19932;-74
2021/08/25 01:06:06;;;;;;;;;;;;;;;24.98;28.55;99115.53;5041349;28;19924;-74
2021/08/25 01:08:32;;;;;;;;;;;;;;;24.95;28.40;99114.06;5058144;28;20302;-74
2021/08/25 01:11:05;;;;;;;;;;;;;;;24.88;28.68;99116.00;5074578;28;19955;-74
2021/08/25 01:13:31;;;;;;;;;;;;;;;24.85;28.62;99121.91;5041122;28;19990;-74
2021/08/25 01:15:56;;;;;;;;;;;;;;;24.83;28.63;99115.84;5075534;28;19924;-74
2021/08/25 01:18:22;;;;;;;;;;;;;;;24.81;28.70;99114.38;5040997;28;20225;-74
2021/08/25 01:20:48;;;;;;;;;;;;;;;24.81;28.68;99117.13;5058012;28;19929;-73
2021/08/25 01:23:17;;;;;;;;;;;;;;;24.78;28.53;99112.91;5057697;28;19924;-75
2021/08/25 01:25:44;;;;;;;;;;;;;;;24.75;28.75;99112.53;5057759;28;19925;-73
2021/08/25 01:28:10;;;;;;;;;;;;;;;24.72;28.73;99113.81;5040891;28;19925;-74
2021/08/25 01:30:37;;;;;;;;;;;;;;;24.74;28.58;99117.16;5057260;28;19924;-75
2021/08/25 01:33:02;;;;;;;;;;;;;;;24.75;28.57;99112.53;5057761;28;19931;-74
2021/08/25 01:35:31;;;;;;;;;;;;;;;24.80;28.66;99113.56;5057098;28;19928;-74
2021/08/25 01:37:57;;;;;;;;;;;;;;;24.82;28.51;99114.16;5073741;28;20391;-74
2021/08/25 01:40:23;;;;;;;;;;;;;;;24.84;28.40;99122.97;5074006;28;19928;-75
2021/08/25 01:42:49;;;;;;;;;;;;;;;24.84;28.27;99117.53;5040693;28;19924;-75
2021/08/25 01:45:14;;;;;;;;;;;;;;;24.85;28.40;99118.34;5057110;28;20401;-75
2021/08/25 01:47:40;;;;;;;;;;;;;;;24.83;28.37;99110.38;5074696;28;19932;-74
2021/08/25 01:50:06;;;;;;;;;;;;;;;24.85;28.33;99116.44;5061735;28;20406;-75
2021/08/25 01:52:32;;;;;;;;;;;;;;;24.84;28.33;99114.78;5043172;28;19924;-74
2021/08/25 01:54:57;;;;;;;;;;;;;;;24.87;28.29;99111.63;5076925;28;19978;-74
2021/08/25 01:57:23;;;;;;;;;;;;;;;24.84;28.30;99111.22;5076950;28;19924;-75
2021/08/25 01:59:49;;;;;;;;;;;;;;;24.85;28.17;99105.50;5076453;28;19924;-75
2021/08/25 02:02:15;;;;;;;;;;;;;;;24.87;28.18;99103.41;5076645;28;19936;-75
2021/08/25 02:04:41;;;;;;;;;;;;;;;24.86;27.99;99104.47;5077014;28;19970;-76
2021/08/25 02:07:07;;;;;;;;;;;;;;;24.85;28.16;99110.97;5076495;28;19924;-76
2021/08/25 02:09:32;;;;;;;;;;;;;;;24.89;28.06;99114.13;5092691;28;19957;-76
2021/08/25 02:11:58;;;;;;;;;;;;;;;24.90;28.00;99113.91;5073178;28;19924;-74
2021/08/25 02:14:24;;;;;;;;;;;;;;;24.94;27.95;99106.94;5074386;28;20375;-75
2021/08/25 02:16:49;;;;;;;;;;;;;;;24.97;27.90;99113.84;5056196;28;19924;-75
2021/08/25 02:19:15;;;;;;;;;;;;;;;25.01;27.95;99106.03;5056978;28;19925;-75
2021/08/25 02:21:41;;;;;;;;;;;;;;;25.03;27.89;99104.75;5056527;28;19936;-76
2021/08/25 02:24:07;;;;;;;;;;;;;;;25.11;27.83;99114.63;5073433;28;20306;-76
2021/08/25 02:26:32;;;;;;;;;;;;;;;25.13;27.68;99104.31;5072979;28;19924;-73
2021/08/25 02:28:58;;;;;;;;;;;;;;;25.19;27.91;99106.13;5073317;28;20294;-75
2021/08/25 02:31:25;;;;;;;;;;;;;;;25.23;27.91;99106.53;5039767;28;20013;-74
2021/08/25 02:33:51;;;;;;;;;;;;;;;25.27;27.83;99114.06;5056137;28;19931;-76
2021/08/25 02:36:17;;;;;;;;;;;;;;;25.31;27.71;99108.97;5055749;28;19924;-74
2021/08/25 02:38:43;;;;;;;;;;;;;;;25.35;27.56;99107.47;5056495;28;19935;-75
2021/08/25 02:41:12;;;;;;;;;;;;;;;25.39;27.56;99105.97;5040168;28;20286;-74
2021/08/25 02:43:38;;;;;;;;;;;;;;;25.40;27.58;99110.38;5055804;28;19936;-75
2021/08/25 02:46:04;;;;;;;;;;;;;;;25.47;27.54;99115.81;5056076;28;19925;-75
2021/08/25 02:48:29;;;;;;;;;;;;;;;25.60;27.52;99115.66;5055975;28;19924;-75
2021/08/25 02:50:55;;;;;;;;;;;;;;;25.64;27.52;99117.72;5039351;28;19931;-75
2021/08/25 02:53:21;;;;;;;;;;;;;;;25.68;27.37;99112.63;5040217;28;19931;-76
2021/08/25 02:55:47;;;;;;;;;;;;;;;25.69;27.36;99108.84;5055767;28;19924;-77
2021/08/25 02:58:13;;;;;;;;;;;;;;;25.74;27.60;99113.63;5055814;28;19924;-78
2021/08/25 03:00:39;;;;;;;;;;;;;;;25.69;27.36;99114.31;5072697;28;20423;-78
2021/08/25 03:03:05;;;;;;;;;;;;;;;25.67;27.39;99113.69;5055418;28;19925;-76
2021/08/25 03:05:31;;;;;;;;;;;;;;;25.62;27.54;99113.53;5039437;28;19924;-78
2021/08/25 03:07:56;;;;;;;;;;;;;;;25.67;27.40;99108.22;5055688;28;19930;-77
2021/08/25 03:10:23;;;;;;;;;;;;;;;25.68;27.56;99107.16;5039271;28;20020;-78
2021/08/25 03:12:49;;;;;;;;;;;;;;;25.75;27.28;99105.19;5073422;28;19924;-77
2021/08/25 03:15:15;;;;;;;;;;;;;;;25.87;27.20;99103.38;5055551;28;19924;-78
2021/08/25 03:17:40;;;;;;;;;;;;;;;25.98;27.07;99100.97;5038882;28;19924;-80
2021/08/25 03:20:07;;;;;;;;;;;;;;;26.05;26.98;99109.94;5039064;28;19924;-78
2021/08/25 03:22:33;;;;;;;;;;;;;;;26.03;26.86;99099.22;5022507;28;19970;-81
2021/08/25 03:24:59;;;;;;;;;;;;;;;26.00;26.74;99104.31;5038902;28;19974;-77
2021/08/25 03:27:25;;;;;;;;;;;;;;;26.06;26.96;99109.69;5038898;28;20422;-79
2021/08/25 03:29:51;;;;;;;;;;;;;;;26.05;26.82;99102.56;5038475;28;20036;-78
2021/08/25 03:32:17;;;;;;;;;;;;;;;26.12;26.83;99099.75;5023593;28;19932;-76
2021/08/25 03:34:43;;;;;;;;;;;;;;;26.26;26.71;99098.50;5039600;28;19924;-78
2021/08/25 03:37:09;;;;;;;;;;;;;;;26.38;26.54;99102.13;5042471;28;19935;-78
2021/08/25 03:39:37;;;;;;;;;;;;;;;26.50;26.59;99099.47;5026684;28;19924;-77
2021/08/25 03:42:04;;;;;;;;;;;;;;;26.64;26.52;99094.66;5059306;28;20409;-77
2021/08/25 03:44:30;;;;;;;;;;;;;;;26.70;26.16;99093.69;5045303;28;19930;-77
2021/08/25 03:46:56;;;;;;;;;;;;;;;26.80;26.36;99095.88;5044301;28;19923;-74
2021/08/25 03:49:21;;;;;;;;;;;;;;;26.88;26.37;99099.13;5059856;28;19931;-75
2021/08/25 03:51:47;;;;;;;;;;;;;;;27.01;26.09;99094.53;5077805;28;19963;-75
2021/08/25 03:54:13;;;;;;;;;;;;;;;27.09;26.09;99088.69;5044138;28;19931;-75
2021/08/25 03:56:39;;;;;;;;;;;;;;;27.20;25.87;99087.91;5062344;28;19931;-75
2021/08/25 03:59:05;;;;;;;;;;;;;;;27.29;25.66;99086.47;5064555;28;20022;-75
2021/08/25 04:01:31;;;;;;;;;;;;;;;27.40;25.51;99086.72;5079058;28;20370;-76
2021/08/25 04:03:57;;;;;;;;;;;;;;;27.51;25.44;99088.63;5044241;28;20302;-76
2021/08/25 04:06:22;;;;;;;;;;;;;;;27.63;25.16;99088.63;5059963;28;20026;-75
2021/08/25 04:08:48;;;;;;;;;;;;;;;27.62;25.00;99096.03;5059075;28;19972;-77
2021/08/25 04:11:20;;;;;;;;;;;;;;;27.67;25.15;99098.88;5058221;28;19924;-75
2021/08/25 04:13:46;;;;;;;;;;;;;;;27.73;25.06;99095.19;5043937;28;20019;-76
2021/08/25 04:16:12;;;;;;;;;;;;;;;27.62;25.00;99093.28;5079186;28;20022;-76
2021/08/25 04:18:38;;;;;;;;;;;;;;;27.56;25.04;99086.81;5076527;28;19928;-76
2021/08/25 04:21:03;;;;;;;;;;;;;;;27.67;25.09;99093.38;5059958;28;19924;-77
2021/08/25 04:23:29;;;;;;;;;;;;;;;27.82;25.05;99080.00;5094595;28;20022;-75
2021/08/25 04:25:55;;;;;;;;;;;;;;;27.91;25.13;99087.88;5059767;28;19967;-75
2021/08/25 04:28:21;;;;;;;;;;;;;;;27.98;25.11;99085.84;5059938;28;20647;-73
2021/08/25 04:30:46;;;;;;;;;;;;;;;28.09;24.92;99087.72;5076593;28;19994;-75
2021/08/25 04:33:12;;;;;;;;;;;;;;;28.24;24.82;99093.53;5059911;28;20429;-75
2021/08/25 04:35:38;;;;;;;;;;;;;;;28.37;24.91;99089.72;5078289;28;20433;-75
2021/08/25 04:38:04;;;;;;;;;;;;;;;28.44;24.74;99086.81;5061742;28;19924;-75
2021/08/25 04:40:29;;;;;;;;;;;;;;;28.64;24.81;99080.88;5061819;28;19924;-76
2021/08/25 04:42:55;;;;;;;;;;;;;;;28.84;24.70;99080.41;5061940;28;19924;-76
2021/08/25 04:45:21;;;;;;;;;;;;;;;29.07;24.44;99072.00;5078523;28;19924;-76
2021/08/25 04:47:47;;;;;;;;;;;;;;;29.38;24.54;99073.34;5078290;28;19974;-76
2021/08/25 04:50:12;;;;;;;;;;;;;;;29.66;24.23;99066.91;5061476;28;19924;-77
2021/08/25 04:52:38;;;;;;;;;;;;;;;29.88;23.74;99055.09;5061938;28;19982;-77
2021/08/25 04:55:04;;;;;;;;;;;;;;;30.06;23.62;99059.44;5045321;28;19923;-75
2021/08/25 04:57:30;;;;;;;;;;;;;;;30.23;23.61;99065.72;5078564;28;19930;-77
2021/08/25 04:59:56;;;;;;;;;;;;;;;30.35;23.11;99069.19;5045369;28;19924;-77
2021/08/25 05:02:21;;;;;;;;;;;;;;;30.25;23.24;99063.56;5044728;28;19954;-75
2021/08/25 05:04:47;;;;;;;;;;;;;;;30.18;23.46;99065.69;5078200;28;19924;-76
2021/08/25 05:07:14;;;;;;;;;;;;;;;30.37;23.52;99072.53;5044709;28;19986;-77
2021/08/25 05:09:39;;;;;;;;;;;;;;;30.37;23.52;99067.00;5044740;28;20256;-75
2021/08/25 05:12:05;;;;;;;;;;;;;;;30.41;23.62;99065.41;5061274;28;19968;-75
2021/08/25 05:14:31;;;;;;;;;;;;;;;30.71;23.51;99062.13;5077806;28;19924;-76
2021/08/25 05:16:57;;;;;;;;;;;;;;;30.99;22.92;99056.59;5044611;28;19924;-76
2021/08/25 05:19:23;;;;;;;;;;;;;;;31.23;22.67;99062.59;5045315;28;20287;-76
2021/08/25 05:21:49;;;;;;;;;;;;;;;31.14;22.17;99054.81;5062271;28;19924;-76
2021/08/25 05:24:14;;;;;;;;;;;;;;;31.19;22.00;99065.88;5044931;28;19924;-75
2021/08/25 05:26:40;;;;;;;;;;;;;;;31.39;21.56;99067.16;5044273;28;19924;-75
2021/08/25 05:29:06;;;;;;;;;;;;;;;31.24;21.42;99053.22;5044017;28;19946;-76
2021/08/25 05:31:32;;;;;;;;;;;;;;;31.31;21.08;99059.38;5043732;28;20379;-76
2021/08/25 05:33:58;;;;;;;;;;;;;;;31.61;20.73;99059.56;5060805;28;19928;-75
2021/08/25 05:36:24;;;;;;;;;;;;;;;31.82;20.72;99054.13;5037095;28;20273;-77
2021/08/25 05:38:50;;;;;;;;;;;;;;;31.81;20.39;99053.31;5053657;28;19925;-76
2021/08/25 05:41:16;;;;;;;;;;;;;;;31.85;20.64;99042.56;5053904;28;19928;-74
2021/08/25 05:43:42;;;;;;;;;;;;;;;31.83;20.00;99044.78;5037603;28;20380;-75
2021/08/25 05:46:08;;;;;;;;;;;;;;;31.94;20.21;99035.44;5053950;28;19928;-75
2021/08/25 05:48:34;;;;;;;;;;;;;;;32.26;20.12;99042.75;5053715;28;19924;-76
2021/08/25 05:51:00;;;;;;;;;;;;;;;32.52;19.78;99035.38;5053644;28;19959;-76
2021/08/25 05:53:26;;;;;;;;;;;;;;;32.65;19.58;99032.09;5037616;28;19937;-75
2021/08/25 05:55:52;;;;;;;;;;;;;;;32.68;19.69;99034.28;5037336;28;19959;-76
2021/08/25 05:58:18;;;;;;;;;;;;;;;32.91;19.39;99027.38;5037886;28;19994;-76
2021/08/25 06:00:43;;;;;;;;;;;;;;;33.05;19.52;99031.28;5053881;28;20276;-76
2021/08/25 06:03:09;;;;;;;;;;;;;;;33.08;19.40;99027.97;5070276;28;19925;-76
2021/08/25 06:05:36;;;;;;;;;;;;;;;32.93;19.19;99036.25;5053797;28;19932;-77
2021/08/25 06:08:01;;;;;;;;;;;;;;;32.98;19.07;99029.91;5036768;28;19932;-75
2021/08/25 06:10:27;;;;;;;;;;;;;;;33.00;18.98;99020.22;5036963;28;19924;-75
2021/08/25 06:12:53;;;;;;;;;;;;;;;33.16;19.10;99018.25;5053773;28;20335;-75
2021/08/25 06:15:19;;;;;;;;;;;;;;;33.39;18.94;99016.84;5036826;28;19925;-75
2021/08/25 06:17:45;;;;;;;;;;;;;;;33.41;18.40;99014.63;5036550;28;19924;-75
2021/08/25 06:20:11;;;;;;;;;;;;;;;33.55;18.24;99015.72;5053161;28;19964;-75
2021/08/25 06:22:36;;;;;;;;;;;;;;;33.81;18.19;99012.84;5052924;28;20016;-76
2021/08/25 06:25:02;;;;;;;;;;;;;;;33.90;17.93;99011.16;5053508;28;19925;-75
2021/08/25 06:27:28;;;;;;;;;;;;;;;34.05;17.82;99004.75;5036488;28;20043;-77
2021/08/25 06:29:54;;;;;;;;;;;;;;;34.14;17.94;99010.53;5036447;28;19979;-75
2021/08/25 06:32:19;;;;;;;;;;;;;;;34.04;17.69;99008.63;5053154;28;20334;-75
2021/08/25 06:34:45;;;;;;;;;;;;;;;34.28;17.14;99006.00;5069998;28;19925;-75
2021/08/25 06:37:11;;;;;;;;;;;;;;;34.53;17.09;99003.09;5041644;28;19924;-75
2021/08/25 06:39:36;;;;;;;;;;;;;;;34.65;16.90;98993.59;5060346;28;19924;-75
2021/08/25 06:42:02;;;;;;;;;;;;;;;34.69;16.62;99003.00;5059204;28;19956;-75
2021/08/25 06:44:29;;;;;;;;;;;;;;;34.42;16.39;99007.03;5094204;28;19924;-76
2021/08/25 06:46:55;;;;;;;;;;;;;;;34.50;16.51;98998.13;5059162;28;19924;-76
2021/08/25 06:49:20;;;;;;;;;;;;;;;34.59;16.42;98994.72;5042593;28;19924;-76
2021/08/25 06:51:46;;;;;;;;;;;;;;;34.68;16.23;98992.97;5075983;28;19974;-75
2021/08/25 06:54:12;;;;;;;;;;;;;;;34.72;16.06;98988.53;5075774;28;20407;-75
2021/08/25 06:56:38;;;;;;;;;;;;;;;34.73;15.94;98984.63;5059061;28;19935;-73
2021/08/25 06:59:04;;;;;;;;;;;;;;;34.69;16.23;98994.66;5042575;28;19924;-76
2021/08/25 07:01:30;;;;;;;;;;;;;;;34.78;16.23;98987.34;5026064;28;19923;-76
2021/08/25 07:03:56;;;;;;;;;;;;;;;34.79;16.25;98980.69;5058961;28;19924;-77
2021/08/25 07:06:21;;;;;;;;;;;;;;;34.84;16.08;98985.38;5076006;28;19930;-76
2021/08/25 07:08:50;;;;;;;;;;;;;;;34.99;16.34;98988.88;5075927;28;20400;-76
2021/08/25 07:11:16;;;;;;;;;;;;;;;35.14;15.64;98989.84;5094007;28;20015;-75
2021/08/25 07:13:42;;;;;;;;;;;;;;;34.99;15.63;98983.31;5025746;28;19927;-75
2021/08/25 07:16:09;;;;;;;;;;;;;;;35.13;15.97;98988.19;5025649;28;19928;-75
2021/08/25 07:18:35;;;;;;;;;;;;;;;35.08;16.23;98985.47;5025845;28;20295;-75
2021/08/25 07:21:00;;;;;;;;;;;;;;;35.07;16.41;98984.63;5042330;28;19924;-75
2021/08/25 07:23:26;;;;;;;;;;;;;;;35.30;16.25;98985.78;5093160;28;20069;-75
2021/08/25 07:25:52;;;;;;;;;;;;;;;35.27;15.65;98989.16;5075698;28;19935;-76
2021/08/25 07:28:18;;;;;;;;;;;;;;;35.32;15.28;98991.03;5058341;28;19934;-76
2021/08/25 07:30:43;;;;;;;;;;;;;;;35.15;15.04;98988.72;5058655;28;19973;-75
2021/08/25 07:33:13;;;;;;;;;;;;;;;35.10;14.87;98994.34;5092783;28;20425;-76
2021/08/25 07:35:39;;;;;;;;;;;;;;;35.01;15.40;98985.78;5075596;28;19940;-75
2021/08/25 07:38:05;;;;;;;;;;;;;;;35.19;14.73;98978.69;5074753;28;19928;-75
2021/08/25 07:40:30;;;;;;;;;;;;;;;35.33;14.90;98989.94;5075037;28;19993;-75
2021/08/25 07:42:56;;;;;;;;;;;;;;;35.55;14.59;98989.47;5093100;28;19970;-75
2021/08/25 07:45:22;;;;;;;;;;;;;;;35.62;14.48;98984.34;5058650;28;19924;-75
2021/08/25 07:47:48;;;;;;;;;;;;;;;35.63;14.30;98980.47;5058256;28;20379;-75
2021/08/25 07:50:13;;;;;;;;;;;;;;;35.62;14.61;98976.84;5075233;28;19931;-76
2021/08/25 07:52:39;;;;;;;;;;;;;;;35.73;14.04;98971.97;5058350;28;20406;-75
2021/08/25 07:55:05;;;;;;;;;;;;;;;35.91;13.88;98975.91;5058520;28;20356;-75
2021/08/25 07:57:31;;;;;;;;;;;;;;;36.12;13.36;98982.91;5041681;28;19953;-75
2021/08/25 07:59:57;;;;;;;;;;;;;;;36.13;13.03;98980.94;5075506;28;19924;-75
2021/08/25 08:02:23;;;;;;;;;;;;;;;36.09;12.57;98988.25;5058029;28;19932;-75
2021/08/25 08:04:48;;;;;;;;;;;;;;;36.15;12.65;98987.03;5058142;28;19924;-75
2021/08/25 08:07:14;;;;;;;;;;;;;;;36.44;12.81;98990.47;5074929;28;19924;-75
2021/08/25 08:09:40;;;;;;;;;;;;;;;36.56;12.99;99000.38;5058233;28;19924;-75
2021/08/25 08:12:06;;;;;;;;;;;;;;;36.55;12.71;98987.59;5058399;28;19931;-75
2021/08/25 08:14:32;;;;;;;;;;;;;;;36.64;12.73;98978.25;5057961;28;20386;-75
2021/08/25 08:17:00;;;;;;;;;;;;;;;36.62;12.70;98982.47;5092822;28;19928;-76
2021/08/25 08:19:29;;;;;;;;;;;;;;;36.69;12.66;98986.50;5059073;28;20024;-75
2021/08/25 08:21:55;;;;;;;;;;;;;;;36.74;12.66;98979.19;5042364;28;20294;-75
2021/08/25 08:24:21;;;;;;;;;;;;;;;36.87;12.85;98984.81;5058013;28;19931;-75
2021/08/25 08:26:47;;;;;;;;;;;;;;;36.71;12.75;98977.84;5058234;28;19928;-75
2021/08/25 08:29:13;;;;;;;;;;;;;;;36.59;13.02;98985.84;5058320;28;19924;-75
2021/08/25 08:31:39;;;;;;;;;;;;;;;36.43;12.84;98977.69;5058164;28;19931;-75
2021/08/25 08:34:05;;;;;;;;;;;;;;;36.45;13.01;98977.41;5042013;28;19924;-76
2021/08/25 08:36:31;;;;;;;;;;;;;;;36.42;13.16;98969.66;5024491;28;20299;-76
2021/08/25 08:38:56;;;;;;;;;;;;;;;36.38;13.54;98963.06;5074561;28;19924;-75
2021/08/25 08:41:22;;;;;;;;;;;;;;;36.59;13.60;98964.38;5058281;28;19942;-75
2021/08/25 08:43:49;;;;;;;;;;;;;;;36.81;13.40;98972.09;5057844;28;19928;-75
2021/08/25 08:46:16;;;;;;;;;;;;;;;36.65;13.12;98962.38;5058163;28;19931;-75
2021/08/25 08:48:42;;;;;;;;;;;;;;;36.47;13.35;98966.81;5057615;28;19930;-75
2021/08/25 08:51:11;;;;;;;;;;;;;;;36.45;13.26;98969.88;5041092;28;20022;-74
2021/08/25 08:53:37;;;;;;;;;;;;;;;36.11;13.63;98960.91;5057802;28;19924;-75
2021/08/25 08:56:03;;;;;;;;;;;;;;;36.17;13.68;98962.50;5057727;28;20035;-76
2021/08/25 08:58:29;;;;;;;;;;;;;;;36.27;13.53;98962.38;5041285;28;19924;-74
2021/08/25 09:00:55;;;;;;;;;;;;;;;36.09;13.56;98960.41;5060443;28;19931;-75
2021/08/25 09:03:22;;;;;;;;;;;;;;;35.82;13.47;98945.16;5078155;28;19924;-75
2021/08/25 09:05:55;;;;;;;;;;;;;;;35.70;13.57;98955.91;5044479;28;20386;-76
2021/08/25 09:08:24;;;;;;;;;;;;;;;35.48;13.49;98943.34;5078378;28;19928;-76
2021/08/25 09:10:58;;;;;;;;;;;;;;;35.45;13.35;98945.88;5044872;28;19946;-74
2021/08/25 09:13:23;;;;;;;;;;;;;;;35.44;13.42;98936.72;5044522;28;19928;-75
2021/08/25 09:15:49;;;;;;;;;;;;;;;35.47;13.73;98938.09;5044877;28;19977;-75
2021/08/25 09:18:17;;;;;;;;;;;;;;;35.46;13.82;98942.78;5044691;28;20295;-76
2021/08/25 09:20:47;;;;;;;;;;;;;;;35.44;13.36;98939.50;5061498;28;19937;-74
2021/08/25 09:23:14;;;;;;;;;;;;;;;35.52;13.16;98940.81;5061144;28;19931;-76
2021/08/25 09:25:41;;;;;;;;;;;;;;;35.57;13.28;98937.16;5028208;28;19931;-75
2021/08/25 09:28:07;;;;;;;;;;;;;;;35.74;13.25;98929.16;5078380;28;19923;-76
2021/08/25 09:30:50;;;;;;;;;;;;;;;35.78;13.54;98927.44;5044531;28;20418;-75
2021/08/25 09:33:16;;;;;;;;;;;;;;;36.00;13.34;98929.66;5044628;28;19969;-74
2021/08/25 09:35:42;;;;;;;;;;;;;;;36.27;13.27;98937.31;5077321;28;19935;-73
2021/08/25 09:38:08;;;;;;;;;;;;;;;36.24;12.52;98935.13;5077293;28;19928;-75
2021/08/25 09:40:43;;;;;;;;;;;;;;;36.37;12.85;98923.25;5028197;28;19924;-76
2021/08/25 09:43:09;;;;;;;;;;;;;;;36.69;12.69;98922.47;5061489;28;19928;-75
2021/08/25 09:45:35;;;;;;;;;;;;;;;36.75;12.57;98919.56;5043740;28;19931;-75
2021/08/25 09:48:01;;;;;;;;;;;;;;;36.76;12.60;98918.47;5060349;28;20073;-75
2021/08/25 09:50:27;;;;;;;;;;;;;;;36.73;12.70;98914.31;5027195;28;19924;-76
2021/08/25 09:52:53;;;;;;;;;;;;;;;36.81;12.68;98921.97;5027013;28;20030;-75
2021/08/25 09:55:31;;;;;;;;;;;;;;;36.68;12.55;98914.41;5060047;28;19928;-76
2021/08/25 09:57:58;;;;;;;;;;;;;;;36.56;12.68;98916.84;5044044;28;19924;-76
2021/08/25 10:00:24;;;;;;;;;;;;;;;36.61;12.37;98914.81;5027360;28;20310;-76
2021/08/25 10:02:50;;;;;;;;;;;;;;;36.63;12.25;98908.91;5043923;28;19924;-76
2021/08/25 10:05:28;;;;;;;;;;;;;;;36.64;12.53;98905.03;5044134;28;19982;-76
2021/08/25 10:08:04;;;;;;;;;;;;;;;36.67;12.03;98915.53;5063756;28;19924;-76
2021/08/25 10:10:30;;;;;;;;;;;;;;;36.50;11.19;98904.16;5060129;28;20018;-75
2021/08/25 10:12:56;;;;;;;;;;;;;;;36.55;11.34;98912.41;5076670;28;20374;-78
2021/08/25 10:15:31;;;;;;;;;;;;;;;36.21;11.47;98913.47;5043610;28;19924;-75
2021/08/25 10:17:57;;;;;;;;;;;;;;;36.34;11.29;98901.59;5060005;28;19985;-75
2021/08/25 10:20:26;;;;;;;;;;;;;;;36.47;10.83;98906.41;5059995;28;19928;-77
2021/08/25 10:22:52;;;;;;;;;;;;;;;36.51;11.63;98903.00;5076858;28;19931;-75
2021/08/25 10:25:18;;;;;;;;;;;;;;;36.65;10.44;98893.56;5076169;28;19924;-76
2021/08/25 10:27:59;;;;;;;;;;;;;;;37.18;10.46;98895.94;5060071;28;19970;-76
2021/08/25 10:30:25;;;;;;;;;;;;;;;37.54;10.43;98883.25;5060372;28;19935;-74
2021/08/25 10:32:50;;;;;;;;;;;;;;;37.71;9.99;98883.44;5043614;28;19924;-75
2021/08/25 10:35:20;;;;;;;;;;;;;;;37.39;10.59;98888.00;5073078;28;19964;-77
2021/08/25 10:37:47;;;;;;;;;;;;;;;37.45;10.49;98880.38;5056187;28;19924;-76
2021/08/25 10:40:13;;;;;;;;;;;;;;;37.41;10.53;98874.59;5056455;28;20305;-75
2021/08/25 10:42:43;;;;;;;;;;;;;;;37.45;10.34;98882.34;5056147;28;19987;-76
2021/08/25 10:45:09;;;;;;;;;;;;;;;37.12;10.74;98872.09;5072739;28;20023;-77
2021/08/25 10:47:53;;;;;;;;;;;;;;;37.14;10.73;98872.63;5055987;28;19924;-76
2021/08/25 10:50:19;;;;;;;;;;;;;;;37.23;10.49;98872.72;5072441;28;20387;-76
2021/08/25 10:52:45;;;;;;;;;;;;;;;37.58;10.82;98870.38;5040039;28;19925;-77
2021/08/25 10:55:10;;;;;;;;;;;;;;;37.92;10.27;98857.94;5040073;28;20390;-76
2021/08/25 10:57:37;;;;;;;;;;;;;;;38.68;10.15;98861.59;5039922;28;19931;-76
2021/08/25 11:00:08;;;;;;;;;;;;;;;39.08;9.31;98853.25;5056950;28;19924;-75
2021/08/25 11:02:40;;;;;;;;;;;;;;;39.61;9.44;98852.31;5073477;28;20347;-76
2021/08/25 11:05:11;;;;;;;;;;;;;;;40.66;9.62;98845.56;5056476;28;19925;-75
2021/08/25 11:07:41;;;;;;;;;;;;;;;41.35;8.95;98840.84;5055498;28;19924;-76
2021/08/25 11:10:07;;;;;;;;;;;;;;;41.88;9.08;98833.75;5055590;28;20438;-75
2021/08/25 11:12:32;;;;;;;;;;;;;;;41.87;8.45;98832.13;5072564;28;19955;-74
2021/08/25 11:14:58;;;;;;;;;;;;;;;41.82;9.12;98835.91;5055856;28;20323;-75
2021/08/25 11:17:24;;;;;;;;;;;;;;;41.65;8.55;98833.25;5072157;28;20352;-74
2021/08/25 11:20:00;;;;;;;;;;;;;;;41.59;8.48;98843.84;5022560;28;19924;-76
2021/08/25 11:22:37;;;;;;;;;;;;;;;41.40;8.20;98837.84;5038765;28;19925;-75
2021/08/25 11:25:04;;;;;;;;;;;;;;;41.38;8.40;98845.78;5072127;28;19924;-74
2021/08/25 11:27:35;;;;;;;;;;;;;;;41.05;8.40;98846.44;5055586;28;19924;-75
2021/08/25 11:30:19;;;;;;;;;;;;;;;40.85;8.48;98844.31;5073668;28;19925;-76
2021/08/25 11:32:49;;;;;;;;;;;;;;;40.22;8.66;98843.97;5071990;28;19932;-76
2021/08/25 11:35:24;;;;;;;;;;;;;;;39.84;8.70;98835.41;5038846;28;19936;-76
2021/08/25 11:37:50;;;;;;;;;;;;;;;38.88;9.00;98843.50;5054969;28;19924;-76
2021/08/25 11:40:16;;;;;;;;;;;;;;;38.64;9.45;98838.25;5055173;28;20062;-75
2021/08/25 11:42:42;;;;;;;;;;;;;;;38.57;9.80;98837.88;5054940;28;19948;-76
2021/08/25 11:45:17;;;;;;;;;;;;;;;38.19;10.00;98838.28;5055073;28;19924;-75
2021/08/25 11:47:46;;;;;;;;;;;;;;;37.94;10.11;98830.50;5071924;28;19925;-75
2021/08/25 11:50:12;;;;;;;;;;;;;;;37.64;9.91;98839.25;5022137;28;19924;-76
2021/08/25 11:52:38;;;;;;;;;;;;;;;37.25;10.13;98831.44;5038623;28;20033;-75
2021/08/25 11:55:04;;;;;;;;;;;;;;;37.18;10.36;98831.03;5055071;28;19924;-76
2021/08/25 11:57:46;;;;;;;;;;;;;;;37.29;10.23;98826.91;5054937;28;20275;-76
2021/08/25 12:00:13;;;;;;;;;;;;;;;37.51;10.27;98828.13;5054902;28;19924;-76
2021/08/25 12:02:57;;;;;;;;;;;;;;;37.59;10.45;98819.03;5038468;28;19928;-76
2021/08/25 12:05:24;;;;;;;;;;;;;;;37.46;9.94;98822.66;5055081;28;20022;-76
2021/08/25 12:08:00;;;;;;;;;;;;;;;37.51;9.99;98822.56;5054984;28;20351;-76
2021/08/25 12:10:25;;;;;;;;;;;;;;;37.55;10.06;98815.22;5071859;28;19925;-75
2021/08/25 12:12:52;;;;;;;;;;;;;;;37.63;10.17;98814.47;5021941;28;19928;-75
2021/08/25 12:15:20;;;;;;;;;;;;;;;37.45;10.21;98821.00;5055572;28;20367;-75
2021/08/25 12:17:58;;;;;;;;;;;;;;;37.50;10.38;98812.53;5071330;28;19932;-75
2021/08/25 12:20:34;;;;;;;;;;;;;;;37.55;10.97;98815.22;5038145;28;19925;-75
2021/08/25 12:23:03;;;;;;;;;;;;;;;37.61;10.85;98808.38;5055598;28;19924;-75
2021/08/25 12:25:48;;;;;;;;;;;;;;;37.72;10.38;98806.16;5054795;28;20013;-75
2021/08/25 12:28:15;;;;;;;;;;;;;;;37.95;10.50;98804.25;5071674;28;19935;-74
2021/08/25 12:30:41;;;;;;;;;;;;;;;38.03;10.47;98800.72;5038038;28;19970;-75
2021/08/25 12:33:07;;;;;;;;;;;;;;;38.56;10.73;98795.16;5071445;28;20367;-74
2021/08/25 12:35:33;;;;;;;;;;;;;;;39.52;9.93;98790.75;5056187;28;19947;-74
2021/08/25 12:37:59;;;;;;;;;;;;;;;40.06;9.78;98787.66;5041536;28;19928;-75
2021/08/25 12:40:26;;;;;;;;;;;;;;;40.23;9.61;98792.41;5041651;28;19924;-76
2021/08/25 12:42:52;;;;;;;;;;;;;;;40.24;9.49;98805.25;5058250;28;19925;-74
2021/08/25 12:45:18;;;;;;;;;;;;;;;40.01;9.62;98796.19;5041707;28;19985;-75
2021/08/25 12:47:48;;;;;;;;;;;;;;;40.13;9.43;98793.56;5041574;28;20407;-74